createdAt,value
2022-07-29T00:01:47.125Z,68.49
2022-07-29T00:04:16.860Z,68.69
2022-07-29T00:06:48.062Z,68.56
2022-07-29T00:09:17.444Z,68.60
2022-07-29T00:11:46.705Z,68.54
2022-07-29T00:14:16.402Z,68.29
2022-07-29T00:16:46.249Z,68.09
2022-07-29T00:19:15.656Z,67.78
2022-07-29T00:21:46.369Z,67.24
2022-07-29T00:24:16.066Z,66.97
2022-07-29T00:26:45.639Z,67.38
2022-07-29T00:29:33.484Z,67.04
2022-07-29T00:32:03.980Z,66.90
2022-07-29T00:34:51.180Z,66.77
2022-07-29T00:37:22.065Z,66.29
2022-07-29T00:39:51.646Z,66.04
2022-07-29T00:42:21.027Z,65.42
2022-07-29T00:44:50.428Z,65.46
2022-07-29T00:47:19.752Z,64.75
2022-07-29T00:49:49.367Z,64.80
2022-07-29T00:52:18.805Z,65.04
2022-07-29T00:54:49.528Z,64.54
2022-07-29T00:57:19.169Z,64.60
2022-07-29T00:59:48.434Z,64.27
2022-07-29T01:02:17.777Z,64.15
2022-07-29T01:04:47.281Z,64.31
2022-07-29T01:07:16.971Z,64.27
2022-07-29T01:09:47.589Z,64.34
2022-07-29T01:12:21.286Z,63.89
2022-07-29T01:14:52.325Z,63.90
2022-07-29T01:17:27.899Z,64.12
2022-07-29T01:20:05.171Z,64.10
2022-07-29T01:22:58.788Z,64.69
2022-07-29T01:26:28.897Z,64.11
2022-07-29T01:29:10.069Z,64.01
2022-07-29T01:31:58.663Z,63.77
2022-07-29T01:34:37.487Z,63.98
2022-07-29T01:37:17.737Z,64.10
2022-07-29T01:39:51.539Z,63.67
2022-07-29T01:42:29.909Z,63.58
2022-07-29T01:45:07.816Z,63.17
2022-07-29T01:47:44.371Z,63.07
2022-07-29T01:50:20.024Z,62.99
2022-07-29T01:52:58.350Z,62.44
2022-07-29T01:55:33.228Z,62.69
2022-07-29T01:58:05.974Z,62.74
2022-07-29T02:00:39.851Z,62.91
2022-07-29T02:03:15.994Z,63.27
2022-07-29T02:05:47.980Z,63.38
2022-07-29T02:08:20.856Z,63.51
2022-07-29T02:10:52.059Z,63.51
2022-07-29T02:13:24.104Z,63.23
2022-07-29T02:15:56.708Z,63.61
2022-07-29T02:18:30.021Z,63.95
2022-07-29T02:21:02.221Z,64.13
2022-07-29T02:23:45.155Z,63.92
2022-07-29T02:26:22.732Z,64.28
2022-07-29T02:28:56.241Z,64.38
2022-07-29T02:31:34.854Z,64.84
2022-07-29T02:34:07.304Z,64.50
2022-07-29T02:36:37.273Z,64.59
2022-07-29T02:39:10.836Z,64.64
2022-07-29T02:41:46.881Z,64.63
2022-07-29T02:44:19.815Z,64.86
2022-07-29T02:46:54.764Z,64.59
2022-07-29T02:49:40.767Z,64.68
2022-07-29T02:52:20.641Z,64.55
2022-07-29T02:54:57.027Z,64.94
2022-07-29T02:57:54.656Z,64.56
2022-07-29T03:00:29.858Z,65.06
2022-07-29T03:03:06.365Z,64.79
2022-07-29T03:05:36.597Z,64.86
2022-07-29T03:08:11.541Z,64.00
2022-07-29T03:10:45.191Z,64.62
2022-07-29T03:13:15.766Z,64.53
2022-07-29T03:15:46.407Z,64.58
2022-07-29T03:18:17.683Z,64.37
2022-07-29T03:20:47.080Z,64.63
2022-07-29T03:23:22.742Z,64.39
2022-07-29T03:25:52.700Z,64.72
2022-07-29T03:28:22.477Z,64.60
2022-07-29T03:30:56.691Z,64.77
2022-07-29T03:33:27.462Z,65.15
2022-07-29T03:35:56.791Z,65.42
2022-07-29T03:38:31.128Z,65.99
2022-07-29T03:41:05.739Z,66.20
2022-07-29T03:43:38.798Z,67.32
2022-07-29T03:46:20.117Z,67.39
2022-07-29T03:48:58.492Z,68.21
2022-07-29T03:51:33.729Z,68.13
2022-07-29T03:54:09.687Z,68.73
2022-07-29T03:56:44.247Z,69.47
2022-07-29T03:59:15.056Z,69.21
2022-07-29T04:01:47.019Z,69.67
2022-07-29T04:04:18.714Z,70.31
2022-07-29T04:06:49.147Z,70.40
2022-07-29T04:09:18.520Z,70.14
2022-07-29T04:11:59.156Z,69.64
2022-07-29T04:14:34.289Z,70.04
2022-07-29T04:17:05.052Z,70.09
2022-07-29T04:19:35.850Z,70.03
2022-07-29T04:22:05.311Z,69.74
2022-07-29T04:24:34.632Z,70.38
2022-07-29T04:27:03.814Z,70.24
2022-07-29T04:29:33.065Z,70.21
2022-07-29T04:32:02.358Z,70.36
2022-07-29T04:34:47.868Z,71.03
2022-07-29T04:37:17.251Z,70.62
2022-07-29T04:39:46.489Z,70.62
2022-07-29T04:42:16.105Z,70.81
2022-07-29T04:44:46.930Z,71.00
2022-07-29T04:47:19.777Z,71.07
2022-07-29T04:49:50.349Z,71.04
2022-07-29T04:52:19.662Z,71.14
2022-07-29T04:54:48.885Z,71.17
2022-07-29T04:57:18.113Z,71.04
2022-07-29T04:59:47.394Z,70.97
2022-07-29T05:02:16.921Z,70.91
2022-07-29T05:04:46.628Z,70.99
2022-07-29T05:07:17.474Z,71.17
2022-07-29T05:09:46.831Z,70.94
2022-07-29T05:12:16.103Z,71.26
2022-07-29T05:14:45.633Z,71.19
2022-07-29T05:17:14.941Z,71.26
2022-07-29T05:19:44.615Z,71.33
2022-07-29T05:22:20.843Z,71.73
2022-07-29T05:24:56.580Z,71.92
2022-07-29T05:27:26.075Z,71.95
2022-07-29T05:29:55.324Z,72.41
2022-07-29T05:32:24.567Z,72.25
2022-07-29T05:34:53.780Z,72.42
2022-07-29T05:37:24.957Z,72.64
2022-07-29T05:39:57.188Z,72.63
2022-07-29T05:42:28.848Z,73.00
2022-07-29T05:44:58.337Z,73.27
2022-07-29T05:47:28.064Z,73.19
2022-07-29T05:49:57.581Z,73.27
2022-07-29T05:52:28.277Z,73.51
2022-07-29T05:54:57.774Z,73.38
2022-07-29T05:57:27.301Z,73.27
2022-07-29T05:59:56.863Z,73.22
2022-07-29T06:02:28.790Z,73.23
2022-07-29T06:05:02.882Z,73.07
2022-07-29T06:07:36.411Z,72.83
2022-07-29T06:10:09.112Z,72.73
2022-07-29T06:12:38.735Z,72.42
2022-07-29T06:15:09.662Z,72.64
2022-07-29T06:17:40.093Z,72.61
2022-07-29T06:20:30.929Z,72.49
2022-07-29T06:23:04.537Z,72.57
2022-07-29T06:25:35.869Z,72.43
2022-07-29T06:28:08.367Z,72.25
2022-07-29T06:30:37.804Z,72.32
2022-07-29T06:33:07.508Z,72.05
2022-07-29T06:35:42.413Z,72.17
2022-07-29T06:38:31.006Z,71.88
2022-07-29T06:41:04.966Z,71.92
2022-07-29T06:43:50.219Z,71.50
2022-07-29T06:46:22.274Z,71.47
2022-07-29T06:48:53.047Z,71.22
2022-07-29T06:51:24.075Z,70.76
2022-07-29T06:53:59.564Z,70.57
2022-07-29T06:56:39.650Z,70.69
2022-07-29T06:59:11.231Z,70.02
2022-07-29T07:01:43.158Z,69.81
2022-07-29T07:04:13.607Z,69.82
2022-07-29T07:06:43.231Z,69.64
2022-07-29T07:09:13.856Z,69.21
2022-07-29T07:11:43.233Z,69.09
2022-07-29T07:14:12.501Z,68.86
2022-07-29T07:16:42.126Z,68.37
2022-07-29T07:19:11.560Z,68.34
2022-07-29T07:21:43.504Z,68.44
2022-07-29T07:24:14.440Z,68.20
2022-07-29T07:26:44.124Z,67.35
2022-07-29T07:29:14.100Z,67.70
2022-07-29T07:31:43.566Z,67.78
2022-07-29T07:34:13.020Z,67.44
2022-07-29T07:36:42.644Z,67.47
2022-07-29T07:39:13.353Z,67.53
2022-07-29T07:41:42.798Z,67.38
2022-07-29T07:44:15.966Z,67.32
2022-07-29T07:46:46.023Z,66.37
2022-07-29T07:49:15.387Z,66.43
2022-07-29T07:51:44.635Z,66.51
2022-07-29T07:54:21.660Z,65.60
2022-07-29T07:56:53.327Z,65.50
2022-07-29T07:59:23.317Z,65.14
2022-07-29T08:01:56.023Z,64.92
2022-07-29T08:04:28.649Z,64.73
2022-07-29T08:06:59.414Z,64.27
2022-07-29T08:09:31.681Z,64.01
2022-07-29T08:12:03.390Z,63.25
2022-07-29T08:14:32.899Z,63.31
2022-07-29T08:17:02.582Z,63.45
2022-07-29T08:19:31.871Z,62.97
2022-07-29T08:22:01.326Z,62.10
2022-07-29T08:24:54.871Z,61.60
2022-07-29T08:27:43.090Z,60.93
2022-07-29T08:30:13.690Z,60.84
2022-07-29T08:32:53.657Z,60.74
2022-07-29T08:35:25.591Z,60.50
2022-07-29T08:37:56.820Z,59.59
2022-07-29T08:40:32.051Z,58.52
2022-07-29T08:43:07.451Z,58.93
2022-07-29T08:45:48.087Z,59.05
2022-07-29T08:48:19.458Z,57.78
2022-07-29T08:50:50.602Z,57.87
2022-07-29T08:53:20.965Z,56.98
2022-07-29T08:55:52.667Z,56.97
2022-07-29T08:58:24.654Z,56.28
2022-07-29T09:00:58.046Z,55.97
2022-07-29T09:03:32.298Z,56.05
2022-07-29T09:06:02.861Z,55.27
2022-07-29T09:08:34.341Z,53.31
2022-07-29T09:11:05.837Z,52.29
2022-07-29T09:13:38.670Z,52.41
2022-07-29T09:16:09.804Z,51.59
2022-07-29T09:18:42.171Z,50.69
2022-07-29T09:21:31.478Z,49.07
2022-07-29T09:24:08.809Z,48.72
2022-07-29T09:26:43.655Z,49.24
2022-07-29T09:29:15.194Z,48.14
2022-07-29T09:31:46.893Z,45.92
2022-07-29T09:34:18.657Z,45.81
2022-07-29T09:36:50.296Z,45.77
2022-07-29T09:39:32.210Z,42.88
2022-07-29T09:42:05.595Z,42.48
2022-07-29T09:44:47.159Z,42.32
2022-07-29T09:47:17.444Z,42.56
2022-07-29T09:49:59.461Z,40.92
2022-07-29T09:52:30.993Z,41.39
2022-07-29T09:55:08.437Z,39.58
2022-07-29T09:57:39.872Z,41.25
2022-07-29T10:00:12.065Z,41.94
2022-07-29T10:02:42.380Z,40.88
2022-07-29T10:05:22.243Z,41.95
2022-07-29T10:07:57.394Z,42.76
2022-07-29T10:10:29.448Z,43.35
2022-07-29T10:13:07.119Z,43.22
2022-07-29T10:15:42.050Z,43.89
2022-07-29T10:18:13.293Z,44.35
2022-07-29T10:20:43.508Z,44.55
2022-07-29T10:23:13.745Z,45.03
2022-07-29T10:25:46.214Z,45.82
2022-07-29T10:28:17.401Z,46.00
2022-07-29T10:30:48.322Z,46.46
2022-07-29T10:33:38.845Z,46.53
2022-07-29T10:36:25.657Z,46.55
2022-07-29T10:39:07.572Z,46.47
2022-07-29T10:41:58.697Z,46.57
2022-07-29T10:44:30.228Z,46.93
2022-07-29T10:46:59.574Z,46.79
2022-07-29T10:49:31.165Z,46.52
2022-07-29T10:52:05.996Z,46.36
2022-07-29T10:54:52.641Z,46.55
2022-07-29T10:57:53.140Z,46.43
2022-07-29T11:00:35.164Z,46.64
2022-07-29T11:03:10.521Z,47.20
2022-07-29T11:05:59.403Z,47.33
2022-07-29T11:08:31.855Z,47.76
2022-07-29T11:11:43.790Z,48.25
2022-07-29T11:15:02.765Z,49.04
2022-07-29T11:18:15.111Z,49.54
2022-07-29T11:20:51.163Z,49.72
2022-07-29T11:23:25.659Z,49.83
2022-07-29T11:26:23.405Z,49.58
2022-07-29T11:29:08.351Z,49.57
2022-07-29T11:31:42.444Z,49.78
2022-07-29T11:34:27.819Z,48.98
2022-07-29T11:40:20.258Z,49.04
2022-07-29T11:42:54.990Z,48.87
2022-07-29T11:45:42.496Z,48.52
2022-07-29T11:48:29.466Z,48.06
2022-07-29T11:51:09.347Z,48.11
2022-07-29T11:53:41.004Z,48.12
2022-07-29T11:56:17.182Z,48.34
2022-07-29T11:58:47.783Z,48.35
2022-07-29T12:01:20.524Z,48.80
2022-07-29T12:03:51.033Z,48.89
2022-07-29T12:06:21.807Z,49.23
2022-07-29T12:08:51.518Z,49.46
2022-07-29T12:11:23.559Z,49.60
2022-07-29T12:13:53.986Z,49.68
2022-07-29T12:16:29.272Z,50.13
2022-07-29T12:19:02.443Z,50.16
2022-07-29T12:21:53.817Z,49.90
2022-07-29T12:24:27.439Z,49.78
2022-07-29T12:27:00.281Z,49.13
2022-07-29T12:29:33.655Z,49.23
2022-07-29T12:32:04.776Z,47.87
2022-07-29T12:34:34.988Z,46.21
2022-07-29T12:37:10.660Z,46.23
2022-07-29T12:39:40.225Z,44.94
2022-07-29T12:42:15.076Z,44.70
2022-07-29T12:44:52.730Z,45.41
2022-07-29T12:47:23.184Z,45.30
2022-07-29T12:49:53.661Z,45.37
2022-07-29T12:52:36.265Z,44.49
2022-07-29T12:55:06.811Z,45.50
2022-07-29T12:57:48.642Z,45.05
2022-07-29T13:00:18.979Z,45.55
2022-07-29T13:02:58.387Z,45.48
2022-07-29T13:05:48.550Z,45.59
2022-07-29T13:08:22.324Z,45.46
2022-07-29T13:10:52.603Z,45.60
2022-07-29T13:13:21.939Z,45.91
2022-07-29T13:16:09.564Z,45.67
2022-07-29T13:18:38.945Z,45.67
2022-07-29T13:21:16.135Z,45.86
2022-07-29T13:23:47.387Z,45.85
2022-07-29T13:26:20.723Z,45.87
2022-07-29T13:28:50.202Z,45.60
2022-07-29T13:31:19.501Z,45.56
2022-07-29T13:33:48.945Z,44.66
2022-07-29T13:36:18.637Z,44.54
2022-07-29T13:38:49.385Z,44.33
2022-07-29T13:41:19.221Z,44.30
2022-07-29T13:43:49.995Z,44.09
2022-07-29T13:46:19.600Z,43.60
2022-07-29T13:48:48.964Z,43.35
2022-07-29T13:51:18.444Z,42.71
2022-07-29T13:53:49.012Z,43.13
2022-07-29T13:56:18.391Z,42.60
2022-07-29T13:58:48.651Z,42.79
2022-07-29T14:01:18.033Z,43.01
2022-07-29T14:03:47.462Z,43.14
2022-07-29T14:06:16.638Z,43.10
2022-07-29T14:08:49.054Z,43.16
2022-07-29T14:11:18.705Z,43.83
2022-07-29T14:13:47.937Z,43.84
2022-07-29T14:16:18.394Z,44.10
2022-07-29T14:18:48.081Z,44.94
2022-07-29T14:21:17.393Z,44.94
2022-07-29T14:23:46.540Z,44.94
2022-07-29T14:26:21.786Z,45.10
2022-07-29T14:28:53.762Z,45.40
2022-07-29T14:31:23.031Z,44.81
2022-07-29T14:33:52.604Z,44.55
2022-07-29T14:36:21.897Z,45.18
2022-07-29T14:38:51.103Z,45.45
2022-07-29T14:41:22.696Z,45.58
2022-07-29T14:43:53.199Z,45.67
2022-07-29T14:46:22.831Z,45.21
2022-07-29T14:48:52.058Z,45.60
2022-07-29T14:51:21.928Z,45.50
2022-07-29T14:53:51.224Z,44.70
2022-07-29T14:56:36.556Z,44.55
2022-07-29T14:59:06.967Z,45.10
2022-07-29T15:01:36.607Z,44.46
2022-07-29T15:04:06.674Z,44.84
2022-07-29T15:06:37.333Z,45.16
2022-07-29T15:09:06.631Z,45.33
2022-07-29T15:11:38.655Z,45.36
2022-07-29T15:14:08.395Z,45.30
2022-07-29T15:16:38.870Z,45.15
2022-07-29T15:19:08.496Z,45.00
2022-07-29T15:21:48.229Z,44.87
2022-07-29T15:24:18.613Z,44.75
2022-07-29T15:26:50.363Z,44.38
2022-07-29T15:29:19.773Z,43.94
2022-07-29T15:31:49.339Z,44.29
2022-07-29T15:34:18.757Z,44.31
2022-07-29T15:36:52.926Z,44.74
2022-07-29T15:39:24.025Z,44.24
2022-07-29T15:41:55.316Z,44.35
2022-07-29T15:44:24.947Z,44.20
2022-07-29T15:47:07.442Z,44.13
2022-07-29T15:49:48.213Z,44.40
2022-07-29T15:52:26.225Z,44.63
2022-07-29T15:54:57.960Z,43.92
2022-07-29T15:57:28.805Z,43.94
2022-07-29T15:59:58.414Z,43.60
2022-07-29T16:02:27.770Z,44.00
2022-07-29T16:04:56.922Z,43.84
2022-07-29T16:07:31.386Z,43.64
2022-07-29T16:10:02.131Z,43.64
2022-07-29T16:12:33.437Z,43.63
2022-07-29T16:15:07.535Z,43.26
2022-07-29T16:17:39.170Z,43.66
2022-07-29T16:20:10.542Z,43.60
2022-07-29T16:22:41.882Z,43.83
2022-07-29T16:25:11.670Z,44.01
2022-07-29T16:27:42.408Z,44.00
2022-07-29T16:30:12.684Z,44.30
2022-07-29T16:32:41.954Z,44.19
2022-07-29T16:35:11.853Z,44.21
2022-07-29T16:37:41.109Z,44.12
2022-07-29T16:40:11.587Z,44.07
2022-07-29T16:42:47.253Z,43.99
2022-07-29T16:45:21.235Z,44.03
2022-07-29T16:47:51.577Z,44.08
2022-07-29T16:50:22.092Z,44.33
2022-07-29T16:52:52.172Z,44.77
2022-07-29T16:55:21.729Z,45.32
2022-07-29T16:57:53.706Z,44.92
2022-07-29T17:00:24.058Z,45.31
2022-07-29T17:02:53.367Z,45.50
2022-07-29T17:05:22.627Z,45.57
2022-07-29T17:07:52.332Z,45.64
2022-07-29T17:10:22.516Z,45.80
2022-07-29T17:12:53.917Z,46.25
2022-07-29T17:15:23.443Z,46.22
2022-07-29T17:17:55.197Z,46.24
2022-07-29T17:20:27.031Z,46.13
2022-07-29T17:22:56.456Z,46.33
2022-07-29T17:25:26.133Z,46.30
2022-07-29T17:28:00.760Z,46.62
2022-07-29T17:30:31.073Z,46.62
2022-07-29T17:33:00.405Z,46.53
2022-07-29T17:35:47.099Z,46.72
2022-07-29T17:38:16.314Z,47.06
2022-07-29T17:40:45.454Z,47.57
2022-07-29T17:43:16.239Z,47.88
2022-07-29T17:45:50.052Z,48.16
2022-07-29T17:48:20.884Z,48.43
2022-07-29T17:50:50.789Z,48.61
2022-07-29T17:53:20.292Z,48.92
2022-07-29T17:55:49.776Z,49.14
2022-07-29T17:58:20.495Z,49.22
2022-07-29T18:00:50.267Z,49.42
2022-07-29T18:03:20.831Z,49.57
2022-07-29T18:05:50.665Z,49.62
2022-07-29T18:08:19.932Z,49.69
2022-07-29T18:10:49.192Z,49.80
2022-07-29T18:13:20.286Z,50.02
2022-07-29T18:15:49.657Z,50.09
2022-07-29T18:18:19.109Z,50.09
2022-07-29T18:20:48.665Z,50.26
2022-07-29T18:23:18.155Z,50.29
2022-07-29T18:25:47.347Z,50.49
2022-07-29T18:28:16.822Z,51.15
2022-07-29T18:30:48.178Z,50.90
2022-07-29T18:33:21.833Z,51.28
2022-07-29T18:36:11.109Z,51.48
2022-07-29T18:38:41.761Z,51.57
2022-07-29T18:41:11.552Z,52.30
2022-07-29T18:43:40.794Z,52.28
2022-07-29T18:46:11.509Z,52.14
2022-07-29T18:48:42.153Z,52.22
2022-07-29T18:51:11.814Z,52.32
2022-07-29T18:53:41.122Z,53.17
2022-07-29T18:56:10.404Z,53.90
2022-07-29T18:58:40.834Z,54.08
2022-07-29T19:01:16.308Z,54.56
2022-07-29T19:03:46.046Z,54.61
2022-07-29T19:06:15.432Z,54.86
2022-07-29T19:08:44.656Z,54.91
2022-07-29T19:11:14.094Z,55.26
2022-07-29T19:13:44.388Z,55.44
2022-07-29T19:16:15.352Z,55.58
2022-07-29T19:18:44.783Z,55.98
2022-07-29T19:21:13.962Z,56.46
2022-07-29T19:24:00.766Z,56.31
2022-07-29T19:26:36.577Z,56.73
2022-07-29T19:29:06.483Z,56.71
2022-07-29T19:31:37.205Z,56.75
2022-07-29T19:34:06.480Z,56.62
2022-07-29T19:36:36.766Z,57.11
2022-07-29T19:39:06.818Z,57.20
2022-07-29T19:41:36.559Z,57.33
2022-07-29T19:44:08.901Z,57.84
2022-07-29T19:46:39.687Z,57.63
2022-07-29T19:49:10.346Z,57.47
2022-07-29T19:51:39.810Z,58.02
2022-07-29T19:54:10.000Z,57.53
2022-07-29T19:56:42.143Z,57.72
2022-07-29T19:59:11.790Z,57.88
2022-07-29T20:01:43.212Z,58.17
2022-07-29T20:04:12.515Z,58.32
2022-07-29T20:06:41.749Z,58.11
2022-07-29T20:09:16.656Z,58.44
2022-07-29T20:11:50.259Z,58.12
2022-07-29T20:14:19.913Z,58.13
2022-07-29T20:16:50.624Z,58.04
2022-07-29T20:19:20.035Z,58.26
2022-07-29T20:21:50.811Z,58.22
2022-07-29T20:24:20.521Z,58.11
2022-07-29T20:26:50.550Z,58.71
2022-07-29T20:29:20.055Z,58.80
2022-07-29T20:31:53.264Z,59.06
2022-07-29T20:34:26.829Z,59.06
2022-07-29T20:36:56.693Z,59.41
2022-07-29T20:39:27.664Z,59.39
2022-07-29T20:41:57.133Z,59.41
2022-07-29T20:44:26.384Z,59.32
2022-07-29T20:46:57.376Z,59.59
2022-07-29T20:49:27.324Z,59.30
2022-07-29T20:51:57.023Z,59.70
2022-07-29T20:54:28.788Z,59.92
2022-07-29T20:56:58.452Z,59.76
2022-07-29T20:59:28.097Z,59.77
2022-07-29T21:01:58.843Z,60.19
2022-07-29T21:04:30.758Z,59.94
2022-07-29T21:07:00.816Z,60.07
2022-07-29T21:09:31.073Z,59.78
2022-07-29T21:12:00.781Z,59.92
2022-07-29T21:14:47.758Z,59.90
2022-07-29T21:17:21.264Z,59.74
2022-07-29T21:19:52.811Z,59.50
2022-07-29T21:22:22.978Z,59.65
2022-07-29T21:24:52.373Z,59.79
2022-07-29T21:27:38.953Z,59.99
2022-07-29T21:30:10.547Z,60.25
2022-07-29T21:32:41.220Z,60.73
2022-07-29T21:35:22.397Z,60.83
2022-07-29T21:38:01.696Z,61.11
2022-07-29T21:40:30.913Z,60.82
2022-07-29T21:43:00.307Z,61.57
2022-07-29T21:45:29.655Z,61.53
2022-07-29T21:48:00.331Z,61.63
2022-07-29T21:50:29.590Z,62.21
2022-07-29T21:52:59.218Z,62.66
2022-07-29T21:55:28.836Z,62.32
2022-07-29T21:57:59.777Z,62.50
2022-07-29T22:00:31.250Z,62.50
2022-07-29T22:03:03.362Z,62.43
2022-07-29T22:05:33.227Z,62.54
2022-07-29T22:08:02.620Z,62.40
2022-07-29T22:10:33.631Z,63.10
2022-07-29T22:13:04.217Z,63.69
2022-07-29T22:15:33.766Z,63.27
2022-07-29T22:18:04.585Z,63.35
2022-07-29T22:20:34.065Z,63.15
2022-07-29T22:23:04.165Z,63.79
2022-07-29T22:25:33.515Z,63.72
2022-07-29T22:28:02.815Z,64.27
2022-07-29T22:30:32.173Z,64.33
2022-07-29T22:33:01.440Z,65.04
2022-07-29T22:35:32.353Z,65.16
2022-07-29T22:38:01.934Z,65.16
2022-07-29T22:40:34.917Z,65.63
2022-07-29T22:43:05.201Z,65.60
2022-07-29T22:45:34.738Z,65.05
2022-07-29T22:48:04.186Z,65.54
2022-07-29T22:50:35.281Z,65.45
2022-07-29T22:53:04.799Z,65.84
2022-07-29T22:55:34.297Z,66.36
2022-07-29T22:58:03.692Z,66.76
2022-07-29T23:00:33.368Z,67.28
2022-07-29T23:03:02.807Z,67.01
2022-07-29T23:05:32.804Z,66.89
2022-07-29T23:08:03.763Z,67.55
2022-07-29T23:10:33.575Z,67.30
2022-07-29T23:13:02.999Z,67.29
2022-07-29T23:15:32.584Z,67.03
2022-07-29T23:18:02.287Z,67.03
2022-07-29T23:20:31.709Z,67.16
2022-07-29T23:23:02.398Z,67.41
2022-07-29T23:25:32.115Z,66.87
2022-07-29T23:28:01.572Z,67.42
2022-07-29T23:30:31.428Z,67.72
2022-07-29T23:33:00.847Z,67.74
2022-07-29T23:35:30.093Z,68.14
2022-07-29T23:37:59.405Z,67.52
2022-07-29T23:40:30.341Z,67.61
2022-07-29T23:42:59.738Z,67.61
2022-07-29T23:45:39.988Z,68.03
2022-07-29T23:48:14.676Z,67.84
2022-07-29T23:50:44.162Z,67.81
2022-07-29T23:53:13.480Z,68.31
2022-07-29T23:55:44.077Z,68.37
2022-07-29T23:58:13.500Z,68.68
